sensor_id;sensor_type;location;lat;lon;timestamp;P1;durP1;ratioP1;P2;durP2;ratioP2
11171;SDS011;5642;50.830;12.082;2023-12-14T00:01:05;2.67;;;2.47;;
11171;SDS011;5642;50.830;12.082;2023-12-14T00:03:42;2.63;;;2.42;;
11171;SDS011;5642;50.830;12.082;2023-12-14T00:06:10;2.85;;;2.55;;
11171;SDS011;5642;50.830;12.082;2023-12-14T00:08:41;3.00;;;2.80;;
11171;SDS011;5642;50.830;12.082;2023-12-14T00:11:15;3.28;;;2.83;;
11171;SDS011;5642;50.830;12.082;2023-12-14T00:13:49;3.33;;;3.08;;
11171;SDS011;5642;50.830;12.082;2023-12-14T00:16:19;3.08;;;2.83;;
11171;SDS011;5642;50.830;12.082;2023-12-14T00:18:45;2.63;;;2.42;;
11171;SDS011;5642;50.830;12.082;2023-12-14T00:21:33;2.88;;;2.55;;
11171;SDS011;5642;50.830;12.082;2023-12-14T00:24:01;2.85;;;2.60;;
11171;SDS011;5642;50.830;12.082;2023-12-14T00:26:36;6.60;;;4.93;;
11171;SDS011;5642;50.830;12.082;2023-12-14T00:29:18;5.25;;;4.22;;
11171;SDS011;5642;50.830;12.082;2023-12-14T00:32:03;3.38;;;3.03;;
11171;SDS011;5642;50.830;12.082;2023-12-14T00:34:31;3.22;;;2.92;;
11171;SDS011;5642;50.830;12.082;2023-12-14T00:36:59;3.30;;;3.00;;
11171;SDS011;5642;50.830;12.082;2023-12-14T00:39:33;3.15;;;2.80;;
11171;SDS011;5642;50.830;12.082;2023-12-14T00:42:10;2.97;;;2.67;;
11171;SDS011;5642;50.830;12.082;2023-12-14T00:44:52;3.10;;;2.80;;
11171;SDS011;5642;50.830;12.082;2023-12-14T00:47:17;2.85;;;2.65;;
11171;SDS011;5642;50.830;12.082;2023-12-14T00:49:57;3.17;;;2.88;;
11171;SDS011;5642;50.830;12.082;2023-12-14T00:52:26;2.85;;;2.65;;
11171;SDS011;5642;50.830;12.082;2023-12-14T00:54:56;2.72;;;2.53;;
11171;SDS011;5642;50.830;12.082;2023-12-14T00:57:38;2.67;;;2.47;;
11171;SDS011;5642;50.830;12.082;2023-12-14T01:00:18;2.80;;;2.53;;
11171;SDS011;5642;50.830;12.082;2023-12-14T01:02:46;2.65;;;2.45;;
11171;SDS011;5642;50.830;12.082;2023-12-14T01:05:15;3.20;;;2.90;;
11171;SDS011;5642;50.830;12.082;2023-12-14T01:07:46;2.70;;;2.47;;
11171;SDS011;5642;50.830;12.082;2023-12-14T01:10:12;2.70;;;2.50;;
11171;SDS011;5642;50.830;12.082;2023-12-14T01:12:43;3.20;;;2.90;;
11171;SDS011;5642;50.830;12.082;2023-12-14T01:15:10;3.33;;;3.03;;
11171;SDS011;5642;50.830;12.082;2023-12-14T01:17:43;2.90;;;2.70;;
11171;SDS011;5642;50.830;12.082;2023-12-14T01:20:24;3.22;;;2.70;;
11171;SDS011;5642;50.830;12.082;2023-12-14T01:23:01;2.90;;;2.60;;
11171;SDS011;5642;50.830;12.082;2023-12-14T01:25:34;2.50;;;2.30;;
11171;SDS011;5642;50.830;12.082;2023-12-14T01:28:04;2.58;;;2.38;;
11171;SDS011;5642;50.830;12.082;2023-12-14T01:30:37;2.55;;;2.35;;
11171;SDS011;5642;50.830;12.082;2023-12-14T01:33:11;2.60;;;2.40;;
11171;SDS011;5642;50.830;12.082;2023-12-14T01:35:43;2.80;;;2.60;;
11171;SDS011;5642;50.830;12.082;2023-12-14T01:38:10;2.58;;;2.20;;
11171;SDS011;5642;50.830;12.082;2023-12-14T01:40:48;2.88;;;2.60;;
11171;SDS011;5642;50.830;12.082;2023-12-14T01:43:18;2.70;;;2.47;;
11171;SDS011;5642;50.830;12.082;2023-12-14T01:45:50;2.60;;;2.40;;
11171;SDS011;5642;50.830;12.082;2023-12-14T01:48:17;2.92;;;2.63;;
11171;SDS011;5642;50.830;12.082;2023-12-14T01:50:48;2.53;;;2.33;;
11171;SDS011;5642;50.830;12.082;2023-12-14T01:53:16;2.78;;;2.58;;
11171;SDS011;5642;50.830;12.082;2023-12-14T01:55:46;2.60;;;2.40;;
11171;SDS011;5642;50.830;12.082;2023-12-14T01:58:25;2.67;;;2.47;;
11171;SDS011;5642;50.830;12.082;2023-12-14T02:03:28;2.60;;;2.40;;
11171;SDS011;5642;50.830;12.082;2023-12-14T02:06:07;2.70;;;2.50;;
11171;SDS011;5642;50.830;12.082;2023-12-14T02:09:04;2.70;;;2.47;;
11171;SDS011;5642;50.830;12.082;2023-12-14T02:11:43;2.65;;;2.45;;
11171;SDS011;5642;50.830;12.082;2023-12-14T02:14:12;2.85;;;2.50;;
11171;SDS011;5642;50.830;12.082;2023-12-14T02:16:50;2.70;;;2.50;;
11171;SDS011;5642;50.830;12.082;2023-12-14T02:19:20;3.42;;;2.83;;
11171;SDS011;5642;50.830;12.082;2023-12-14T02:22:02;2.97;;;2.70;;
11171;SDS011;5642;50.830;12.082;2023-12-14T02:24:38;2.75;;;2.55;;
11171;SDS011;5642;50.830;12.082;2023-12-14T02:27:23;2.90;;;2.60;;
11171;SDS011;5642;50.830;12.082;2023-12-14T02:30:00;2.70;;;2.50;;
11171;SDS011;5642;50.830;12.082;2023-12-14T02:32:38;2.90;;;2.70;;
11171;SDS011;5642;50.830;12.082;2023-12-14T02:35:19;2.88;;;2.67;;
11171;SDS011;5642;50.830;12.082;2023-12-14T02:37:53;2.90;;;2.70;;
11171;SDS011;5642;50.830;12.082;2023-12-14T02:40:19;2.97;;;2.70;;
11171;SDS011;5642;50.830;12.082;2023-12-14T02:43:00;3.00;;;2.70;;
11171;SDS011;5642;50.830;12.082;2023-12-14T02:45:33;2.72;;;2.50;;
11171;SDS011;5642;50.830;12.082;2023-12-14T02:48:03;3.00;;;2.80;;
11171;SDS011;5642;50.830;12.082;2023-12-14T02:50:30;3.17;;;2.88;;
11171;SDS011;5642;50.830;12.082;2023-12-14T02:53:11;2.70;;;2.50;;
11171;SDS011;5642;50.830;12.082;2023-12-14T02:55:54;2.50;;;2.30;;
11171;SDS011;5642;50.830;12.082;2023-12-14T02:58:22;3.30;;;2.50;;
11171;SDS011;5642;50.830;12.082;2023-12-14T03:00:52;2.80;;;2.50;;
11171;SDS011;5642;50.830;12.082;2023-12-14T03:03:25;2.80;;;2.60;;
11171;SDS011;5642;50.830;12.082;2023-12-14T03:05:51;3.10;;;2.83;;
11171;SDS011;5642;50.830;12.082;2023-12-14T03:08:28;3.17;;;2.70;;
11171;SDS011;5642;50.830;12.082;2023-12-14T03:11:20;2.80;;;2.60;;
11171;SDS011;5642;50.830;12.082;2023-12-14T03:14:03;2.50;;;2.30;;
11171;SDS011;5642;50.830;12.082;2023-12-14T03:16:30;2.70;;;2.50;;
11171;SDS011;5642;50.830;12.082;2023-12-14T03:19:07;2.50;;;2.30;;
11171;SDS011;5642;50.830;12.082;2023-12-14T03:21:46;3.03;;;2.72;;
11171;SDS011;5642;50.830;12.082;2023-12-14T03:24:21;2.80;;;2.55;;
11171;SDS011;5642;50.830;12.082;2023-12-14T03:26:49;2.70;;;2.50;;
11171;SDS011;5642;50.830;12.082;2023-12-14T03:29:16;3.10;;;2.80;;
11171;SDS011;5642;50.830;12.082;2023-12-14T03:32:00;2.40;;;2.20;;
11171;SDS011;5642;50.830;12.082;2023-12-14T03:34:43;2.40;;;2.20;;
11171;SDS011;5642;50.830;12.082;2023-12-14T03:37:10;2.33;;;2.13;;
11171;SDS011;5642;50.830;12.082;2023-12-14T03:39:40;2.20;;;2.00;;
11171;SDS011;5642;50.830;12.082;2023-12-14T03:42:06;1.70;;;1.60;;
11171;SDS011;5642;50.830;12.082;2023-12-14T03:44:36;1.50;;;1.40;;
11171;SDS011;5642;50.830;12.082;2023-12-14T03:47:03;1.88;;;1.77;;
11171;SDS011;5642;50.830;12.082;2023-12-14T03:49:49;1.70;;;1.60;;
11171;SDS011;5642;50.830;12.082;2023-12-14T03:52:46;1.80;;;1.70;;
11171;SDS011;5642;50.830;12.082;2023-12-14T03:55:27;1.92;;;1.83;;
11171;SDS011;5642;50.830;12.082;2023-12-14T03:57:54;1.92;;;1.80;;
11171;SDS011;5642;50.830;12.082;2023-12-14T04:00:37;2.03;;;1.83;;
11171;SDS011;5642;50.830;12.082;2023-12-14T04:03:21;1.63;;;1.52;;
11171;SDS011;5642;50.830;12.082;2023-12-14T04:05:47;1.90;;;1.60;;
11171;SDS011;5642;50.830;12.082;2023-12-14T04:08:24;2.20;;;1.92;;
11171;SDS011;5642;50.830;12.082;2023-12-14T04:10:52;2.55;;;1.80;;
11171;SDS011;5642;50.830;12.082;2023-12-14T04:13:32;2.05;;;1.85;;
11171;SDS011;5642;50.830;12.082;2023-12-14T04:16:00;2.25;;;2.00;;
11171;SDS011;5642;50.830;12.082;2023-12-14T04:18:26;2.03;;;1.83;;
11171;SDS011;5642;50.830;12.082;2023-12-14T04:21:07;2.22;;;1.98;;
11171;SDS011;5642;50.830;12.082;2023-12-14T04:23:42;1.90;;;1.80;;
11171;SDS011;5642;50.830;12.082;2023-12-14T04:26:21;2.05;;;1.85;;
11171;SDS011;5642;50.830;12.082;2023-12-14T04:28:50;2.15;;;1.95;;
11171;SDS011;5642;50.830;12.082;2023-12-14T04:31:20;1.70;;;1.60;;
11171;SDS011;5642;50.830;12.082;2023-12-14T04:33:56;1.98;;;1.63;;
11171;SDS011;5642;50.830;12.082;2023-12-14T04:36:41;1.60;;;1.50;;
11171;SDS011;5642;50.830;12.082;2023-12-14T04:39:31;1.70;;;1.60;;
11171;SDS011;5642;50.830;12.082;2023-12-14T04:42:03;3.00;;;1.80;;
11171;SDS011;5642;50.830;12.082;2023-12-14T04:44:36;2.38;;;1.73;;
11171;SDS011;5642;50.830;12.082;2023-12-14T04:47:19;1.80;;;1.50;;
11171;SDS011;5642;50.830;12.082;2023-12-14T04:49:52;1.60;;;1.50;;
11171;SDS011;5642;50.830;12.082;2023-12-14T04:52:26;1.52;;;1.42;;
11171;SDS011;5642;50.830;12.082;2023-12-14T04:55:03;1.92;;;1.70;;
11171;SDS011;5642;50.830;12.082;2023-12-14T04:57:42;1.80;;;1.70;;
11171;SDS011;5642;50.830;12.082;2023-12-14T05:00:09;1.80;;;1.70;;
11171;SDS011;5642;50.830;12.082;2023-12-14T05:02:52;1.58;;;1.48;;
11171;SDS011;5642;50.830;12.082;2023-12-14T05:05:29;1.67;;;1.58;;
11171;SDS011;5642;50.830;12.082;2023-12-14T05:08:27;2.08;;;1.90;;
11171;SDS011;5642;50.830;12.082;2023-12-14T05:10:54;1.80;;;1.70;;
11171;SDS011;5642;50.830;12.082;2023-12-14T05:13:43;2.17;;;1.98;;
11171;SDS011;5642;50.830;12.082;2023-12-14T05:16:27;2.70;;;2.20;;
11171;SDS011;5642;50.830;12.082;2023-12-14T05:18:56;3.17;;;2.60;;
11171;SDS011;5642;50.830;12.082;2023-12-14T05:21:35;3.00;;;2.47;;
11171;SDS011;5642;50.830;12.082;2023-12-14T05:24:07;3.55;;;2.95;;
11171;SDS011;5642;50.830;12.082;2023-12-14T05:26:46;3.78;;;2.92;;
11171;SDS011;5642;50.830;12.082;2023-12-14T05:29:30;3.50;;;2.90;;
11171;SDS011;5642;50.830;12.082;2023-12-14T05:32:18;3.30;;;2.67;;
11171;SDS011;5642;50.830;12.082;2023-12-14T05:34:59;2.90;;;2.60;;
11171;SDS011;5642;50.830;12.082;2023-12-14T05:37:31;2.90;;;2.55;;
11171;SDS011;5642;50.830;12.082;2023-12-14T05:39:59;2.47;;;2.28;;
11171;SDS011;5642;50.830;12.082;2023-12-14T05:42:44;2.58;;;2.38;;
11171;SDS011;5642;50.830;12.082;2023-12-14T05:45:27;2.20;;;2.00;;
11171;SDS011;5642;50.830;12.082;2023-12-14T05:48:05;2.45;;;2.15;;
11171;SDS011;5642;50.830;12.082;2023-12-14T05:50:46;2.28;;;1.98;;
11171;SDS011;5642;50.830;12.082;2023-12-14T05:53:26;2.40;;;2.20;;
11171;SDS011;5642;50.830;12.082;2023-12-14T05:56:05;2.53;;;2.33;;
11171;SDS011;5642;50.830;12.082;2023-12-14T05:58:50;2.35;;;2.15;;
11171;SDS011;5642;50.830;12.082;2023-12-14T06:01:19;2.38;;;2.13;;
11171;SDS011;5642;50.830;12.082;2023-12-14T06:03:54;2.60;;;2.40;;
11171;SDS011;5642;50.830;12.082;2023-12-14T06:06:20;2.45;;;2.25;;
11171;SDS011;5642;50.830;12.082;2023-12-14T06:08:49;2.63;;;2.42;;
11171;SDS011;5642;50.830;12.082;2023-12-14T06:11:30;3.15;;;2.53;;
11171;SDS011;5642;50.830;12.082;2023-12-14T06:14:11;2.17;;;1.98;;
11171;SDS011;5642;50.830;12.082;2023-12-14T06:16:53;2.88;;;2.53;;
11171;SDS011;5642;50.830;12.082;2023-12-14T06:19:35;2.80;;;2.50;;
11171;SDS011;5642;50.830;12.082;2023-12-14T06:22:04;3.65;;;3.00;;
11171;SDS011;5642;50.830;12.082;2023-12-14T06:24:42;2.90;;;2.53;;
11171;SDS011;5642;50.830;12.082;2023-12-14T06:27:08;2.88;;;2.58;;
11171;SDS011;5642;50.830;12.082;2023-12-14T06:29:34;3.30;;;2.80;;
11171;SDS011;5642;50.830;12.082;2023-12-14T06:32:21;2.85;;;2.53;;
11171;SDS011;5642;50.830;12.082;2023-12-14T06:34:50;2.55;;;2.20;;
11171;SDS011;5642;50.830;12.082;2023-12-14T06:37:32;3.03;;;2.72;;
11171;SDS011;5642;50.830;12.082;2023-12-14T06:40:07;2.70;;;2.50;;
11171;SDS011;5642;50.830;12.082;2023-12-14T06:42:55;3.60;;;3.05;;
11171;SDS011;5642;50.830;12.082;2023-12-14T06:45:39;2.90;;;2.60;;
11171;SDS011;5642;50.830;12.082;2023-12-14T06:48:29;3.17;;;2.88;;
11171;SDS011;5642;50.830;12.082;2023-12-14T06:51:14;3.50;;;2.95;;
11171;SDS011;5642;50.830;12.082;2023-12-14T06:53:45;3.45;;;2.90;;
11171;SDS011;5642;50.830;12.082;2023-12-14T06:56:15;3.78;;;2.90;;
11171;SDS011;5642;50.830;12.082;2023-12-14T06:58:52;3.30;;;2.72;;
11171;SDS011;5642;50.830;12.082;2023-12-14T07:01:37;2.70;;;2.50;;
11171;SDS011;5642;50.830;12.082;2023-12-14T07:04:11;2.63;;;2.42;;
11171;SDS011;5642;50.830;12.082;2023-12-14T07:06:57;2.78;;;2.47;;
11171;SDS011;5642;50.830;12.082;2023-12-14T07:09:32;3.15;;;2.85;;
11171;SDS011;5642;50.830;12.082;2023-12-14T07:12:00;2.83;;;2.50;;
11171;SDS011;5642;50.830;12.082;2023-12-14T07:14:29;2.70;;;2.45;;
11171;SDS011;5642;50.830;12.082;2023-12-14T07:17:06;3.05;;;2.53;;
11171;SDS011;5642;50.830;12.082;2023-12-14T07:19:42;2.65;;;2.45;;
11171;SDS011;5642;50.830;12.082;2023-12-14T07:22:09;2.38;;;2.17;;
11171;SDS011;5642;50.830;12.082;2023-12-14T07:24:44;2.33;;;2.13;;
11171;SDS011;5642;50.830;12.082;2023-12-14T07:27:23;2.60;;;2.40;;
11171;SDS011;5642;50.830;12.082;2023-12-14T07:29:51;2.78;;;2.50;;
11171;SDS011;5642;50.830;12.082;2023-12-14T07:32:18;2.95;;;2.53;;
11171;SDS011;5642;50.830;12.082;2023-12-14T07:34:45;2.85;;;2.65;;
11171;SDS011;5642;50.830;12.082;2023-12-14T07:37:20;2.63;;;2.42;;
11171;SDS011;5642;50.830;12.082;2023-12-14T07:40:00;3.40;;;2.80;;
11171;SDS011;5642;50.830;12.082;2023-12-14T07:42:32;2.50;;;2.30;;
11171;SDS011;5642;50.830;12.082;2023-12-14T07:44:59;2.90;;;2.63;;
11171;SDS011;5642;50.830;12.082;2023-12-14T07:47:28;2.67;;;2.47;;
11171;SDS011;5642;50.830;12.082;2023-12-14T07:50:12;3.05;;;2.80;;
11171;SDS011;5642;50.830;12.082;2023-12-14T07:52:59;2.85;;;2.58;;
11171;SDS011;5642;50.830;12.082;2023-12-14T07:55:41;2.40;;;2.20;;
11171;SDS011;5642;50.830;12.082;2023-12-14T07:58:19;2.60;;;2.40;;
11171;SDS011;5642;50.830;12.082;2023-12-14T08:00:55;2.47;;;2.28;;
11171;SDS011;5642;50.830;12.082;2023-12-14T08:03:23;2.60;;;2.40;;
11171;SDS011;5642;50.830;12.082;2023-12-14T08:05:55;2.47;;;2.28;;
11171;SDS011;5642;50.830;12.082;2023-12-14T08:08:22;2.53;;;2.33;;
11171;SDS011;5642;50.830;12.082;2023-12-14T08:10:55;2.58;;;2.38;;
11171;SDS011;5642;50.830;12.082;2023-12-14T08:13:22;2.63;;;2.42;;
11171;SDS011;5642;50.830;12.082;2023-12-14T08:15:52;2.97;;;2.78;;
11171;SDS011;5642;50.830;12.082;2023-12-14T08:18:34;3.00;;;2.67;;
11171;SDS011;5642;50.830;12.082;2023-12-14T08:21:02;3.10;;;2.80;;
11171;SDS011;5642;50.830;12.082;2023-12-14T08:23:45;2.90;;;2.60;;
11171;SDS011;5642;50.830;12.082;2023-12-14T08:26:21;2.97;;;2.78;;
11171;SDS011;5642;50.830;12.082;2023-12-14T08:29:04;2.97;;;2.67;;
11171;SDS011;5642;50.830;12.082;2023-12-14T08:31:32;3.00;;;2.70;;
11171;SDS011;5642;50.830;12.082;2023-12-14T08:34:02;2.97;;;2.72;;
11171;SDS011;5642;50.830;12.082;2023-12-14T08:36:51;2.53;;;2.33;;
11171;SDS011;5642;50.830;12.082;2023-12-14T08:39:19;3.08;;;2.78;;
11171;SDS011;5642;50.830;12.082;2023-12-14T08:41:47;2.78;;;2.50;;
11171;SDS011;5642;50.830;12.082;2023-12-14T08:44:34;3.05;;;2.55;;
11171;SDS011;5642;50.830;12.082;2023-12-14T08:47:04;3.13;;;2.67;;
11171;SDS011;5642;50.830;12.082;2023-12-14T08:49:38;2.33;;;2.13;;
11171;SDS011;5642;50.830;12.082;2023-12-14T08:52:10;2.47;;;2.28;;
11171;SDS011;5642;50.830;12.082;2023-12-14T08:54:39;3.08;;;2.78;;
11171;SDS011;5642;50.830;12.082;2023-12-14T08:57:30;2.35;;;2.15;;
11171;SDS011;5642;50.830;12.082;2023-12-14T09:00:05;2.33;;;2.13;;
11171;SDS011;5642;50.830;12.082;2023-12-14T09:02:43;2.80;;;2.60;;
11171;SDS011;5642;50.830;12.082;2023-12-14T09:05:14;2.63;;;2.42;;
11171;SDS011;5642;50.830;12.082;2023-12-14T09:07:48;2.50;;;2.30;;
11171;SDS011;5642;50.830;12.082;2023-12-14T09:10:41;3.30;;;2.55;;
11171;SDS011;5642;50.830;12.082;2023-12-14T09:13:17;2.30;;;2.10;;
11171;SDS011;5642;50.830;12.082;2023-12-14T09:15:59;2.17;;;1.98;;
11171;SDS011;5642;50.830;12.082;2023-12-14T09:18:39;2.17;;;2.03;;
11171;SDS011;5642;50.830;12.082;2023-12-14T09:21:06;2.30;;;2.10;;
11171;SDS011;5642;50.830;12.082;2023-12-14T09:23:38;2.28;;;2.08;;
11171;SDS011;5642;50.830;12.082;2023-12-14T09:26:08;2.45;;;2.25;;
11171;SDS011;5642;50.830;12.082;2023-12-14T09:28:46;2.53;;;2.33;;
11171;SDS011;5642;50.830;12.082;2023-12-14T09:31:27;5.22;;;4.30;;
11171;SDS011;5642;50.830;12.082;2023-12-14T09:34:10;5.07;;;4.57;;
11171;SDS011;5642;50.830;12.082;2023-12-14T09:36:49;3.72;;;3.42;;
11171;SDS011;5642;50.830;12.082;2023-12-14T09:39:21;5.78;;;4.78;;
11171;SDS011;5642;50.830;12.082;2023-12-14T09:42:05;3.33;;;3.03;;
11171;SDS011;5642;50.830;12.082;2023-12-14T09:44:34;3.20;;;2.90;;
11171;SDS011;5642;50.830;12.082;2023-12-14T09:47:29;5.30;;;3.95;;
11171;SDS011;5642;50.830;12.082;2023-12-14T09:50:06;3.15;;;2.85;;
11171;SDS011;5642;50.830;12.082;2023-12-14T09:52:52;2.75;;;2.55;;
11171;SDS011;5642;50.830;12.082;2023-12-14T09:55:19;2.53;;;2.28;;
11171;SDS011;5642;50.830;12.082;2023-12-14T09:58:03;2.55;;;2.35;;
11171;SDS011;5642;50.830;12.082;2023-12-14T10:00:39;2.35;;;2.15;;
11171;SDS011;5642;50.830;12.082;2023-12-14T10:03:24;2.58;;;2.38;;
11171;SDS011;5642;50.830;12.082;2023-12-14T10:06:11;2.08;;;1.98;;
11171;SDS011;5642;50.830;12.082;2023-12-14T10:09:00;2.40;;;2.00;;
11171;SDS011;5642;50.830;12.082;2023-12-14T10:11:43;2.13;;;1.98;;
11171;SDS011;5642;50.830;12.082;2023-12-14T10:14:20;2.17;;;1.98;;
11171;SDS011;5642;50.830;12.082;2023-12-14T10:17:17;1.92;;;1.83;;
11171;SDS011;5642;50.830;12.082;2023-12-14T10:20:01;2.28;;;1.60;;
11171;SDS011;5642;50.830;12.082;2023-12-14T10:22:43;1.50;;;1.40;;
11171;SDS011;5642;50.830;12.082;2023-12-14T10:25:35;1.40;;;1.35;;
11171;SDS011;5642;50.830;12.082;2023-12-14T10:28:22;1.50;;;1.40;;
11171;SDS011;5642;50.830;12.082;2023-12-14T10:30:54;1.40;;;1.30;;
11171;SDS011;5642;50.830;12.082;2023-12-14T10:33:29;1.10;;;1.10;;
11171;SDS011;5642;50.830;12.082;2023-12-14T10:36:14;1.25;;;1.15;;
11171;SDS011;5642;50.830;12.082;2023-12-14T10:38:59;1.23;;;1.13;;
11171;SDS011;5642;50.830;12.082;2023-12-14T10:41:32;1.30;;;1.20;;
11171;SDS011;5642;50.830;12.082;2023-12-14T10:44:18;1.30;;;1.20;;
11171;SDS011;5642;50.830;12.082;2023-12-14T10:46:58;1.20;;;1.20;;
11171;SDS011;5642;50.830;12.082;2023-12-14T10:49:34;1.40;;;1.30;;
11171;SDS011;5642;50.830;12.082;2023-12-14T10:52:15;1.45;;;1.35;;
11171;SDS011;5642;50.830;12.082;2023-12-14T10:54:46;1.40;;;1.30;;
11171;SDS011;5642;50.830;12.082;2023-12-14T10:57:40;1.40;;;1.30;;
11171;SDS011;5642;50.830;12.082;2023-12-14T11:00:15;1.38;;;1.27;;
11171;SDS011;5642;50.830;12.082;2023-12-14T11:03:12;1.60;;;1.40;;
11171;SDS011;5642;50.830;12.082;2023-12-14T11:05:45;1.77;;;1.48;;
11171;SDS011;5642;50.830;12.082;2023-12-14T11:12:10;1.58;;;1.48;;
11171;SDS011;5642;50.830;12.082;2023-12-14T11:14:36;2.22;;;1.73;;
11171;SDS011;5642;50.830;12.082;2023-12-14T11:17:20;1.75;;;1.63;;
11171;SDS011;5642;50.830;12.082;2023-12-14T11:20:24;1.77;;;1.67;;
11171;SDS011;5642;50.830;12.082;2023-12-14T11:22:51;1.98;;;1.88;;
11171;SDS011;5642;50.830;12.082;2023-12-14T11:25:52;1.90;;;1.80;;
11171;SDS011;5642;50.830;12.082;2023-12-14T11:28:27;1.75;;;1.65;;
11171;SDS011;5642;50.830;12.082;2023-12-14T11:30:54;2.03;;;1.83;;
11171;SDS011;5642;50.830;12.082;2023-12-14T11:33:39;1.42;;;1.33;;
11171;SDS011;5642;50.830;12.082;2023-12-14T11:36:16;1.92;;;1.83;;
11171;SDS011;5642;50.830;12.082;2023-12-14T11:38:43;1.70;;;1.60;;
11171;SDS011;5642;50.830;12.082;2023-12-14T11:41:18;1.63;;;1.52;;
11171;SDS011;5642;50.830;12.082;2023-12-14T11:43:49;1.70;;;1.60;;
11171;SDS011;5642;50.830;12.082;2023-12-14T11:46:21;1.50;;;1.40;;
11171;SDS011;5642;50.830;12.082;2023-12-14T11:48:50;1.55;;;1.45;;
11171;SDS011;5642;50.830;12.082;2023-12-14T11:51:32;1.75;;;1.65;;
11171;SDS011;5642;50.830;12.082;2023-12-14T11:54:01;1.77;;;1.38;;
11171;SDS011;5642;50.830;12.082;2023-12-14T11:56:38;1.52;;;1.42;;
11171;SDS011;5642;50.830;12.082;2023-12-14T11:59:19;1.80;;;1.70;;
11171;SDS011;5642;50.830;12.082;2023-12-14T12:01:54;1.48;;;1.38;;
11171;SDS011;5642;50.830;12.082;2023-12-14T12:04:24;1.55;;;1.45;;
11171;SDS011;5642;50.830;12.082;2023-12-14T12:07:00;1.40;;;1.30;;
11171;SDS011;5642;50.830;12.082;2023-12-14T12:09:42;1.33;;;1.23;;
11171;SDS011;5642;50.830;12.082;2023-12-14T12:12:23;7.70;;;5.78;;
11171;SDS011;5642;50.830;12.082;2023-12-14T12:14:50;4.97;;;4.00;;
11171;SDS011;5642;50.830;12.082;2023-12-14T12:17:25;4.95;;;3.75;;
11171;SDS011;5642;50.830;12.082;2023-12-14T12:19:51;4.10;;;3.00;;
11171;SDS011;5642;50.830;12.082;2023-12-14T12:22:18;2.95;;;2.65;;
11171;SDS011;5642;50.830;12.082;2023-12-14T12:24:49;2.97;;;2.33;;
11171;SDS011;5642;50.830;12.082;2023-12-14T12:27:31;2.00;;;1.80;;
11171;SDS011;5642;50.830;12.082;2023-12-14T12:30:16;1.88;;;1.75;;
11171;SDS011;5642;50.830;12.082;2023-12-14T12:32:58;1.50;;;1.40;;
11171;SDS011;5642;50.830;12.082;2023-12-14T12:35:25;1.70;;;1.60;;
11171;SDS011;5642;50.830;12.082;2023-12-14T12:37:54;1.55;;;1.40;;
11171;SDS011;5642;50.830;12.082;2023-12-14T12:40:31;1.50;;;1.33;;
11171;SDS011;5642;50.830;12.082;2023-12-14T12:42:58;1.27;;;1.17;;
11171;SDS011;5642;50.830;12.082;2023-12-14T12:45:36;0.85;;;0.85;;
11171;SDS011;5642;50.830;12.082;2023-12-14T12:48:16;1.30;;;1.20;;
11171;SDS011;5642;50.830;12.082;2023-12-14T12:50:54;1.00;;;1.00;;
11171;SDS011;5642;50.830;12.082;2023-12-14T12:53:37;1.35;;;1.25;;
11171;SDS011;5642;50.830;12.082;2023-12-14T12:56:17;1.77;;;1.60;;
11171;SDS011;5642;50.830;12.082;2023-12-14T12:59:11;2.80;;;2.50;;
11171;SDS011;5642;50.830;12.082;2023-12-14T13:01:46;2.15;;;1.70;;
11171;SDS011;5642;50.830;12.082;2023-12-14T13:04:27;2.25;;;1.55;;
11171;SDS011;5642;50.830;12.082;2023-12-14T13:06:57;1.38;;;1.27;;
11171;SDS011;5642;50.830;12.082;2023-12-14T13:09:40;1.38;;;1.27;;
11171;SDS011;5642;50.830;12.082;2023-12-14T13:12:06;1.30;;;1.20;;
11171;SDS011;5642;50.830;12.082;2023-12-14T13:14:53;1.13;;;1.05;;
11171;SDS011;5642;50.830;12.082;2023-12-14T13:17:33;1.23;;;1.13;;
11171;SDS011;5642;50.830;12.082;2023-12-14T13:20:18;1.00;;;1.00;;
11171;SDS011;5642;50.830;12.082;2023-12-14T13:22:57;1.25;;;1.15;;
11171;SDS011;5642;50.830;12.082;2023-12-14T13:25:37;1.10;;;1.10;;
11171;SDS011;5642;50.830;12.082;2023-12-14T13:28:25;1.40;;;1.30;;
11171;SDS011;5642;50.830;12.082;2023-12-14T13:31:13;1.52;;;1.42;;
11171;SDS011;5642;50.830;12.082;2023-12-14T13:33:41;1.50;;;1.40;;
11171;SDS011;5642;50.830;12.082;2023-12-14T13:36:14;1.48;;;1.38;;
11171;SDS011;5642;50.830;12.082;2023-12-14T13:38:52;1.60;;;1.40;;
11171;SDS011;5642;50.830;12.082;2023-12-14T13:41:22;1.60;;;1.50;;
11171;SDS011;5642;50.830;12.082;2023-12-14T13:43:49;1.67;;;1.58;;
11171;SDS011;5642;50.830;12.082;2023-12-14T13:46:36;1.33;;;1.25;;
11171;SDS011;5642;50.830;12.082;2023-12-14T13:49:15;1.20;;;1.10;;
11171;SDS011;5642;50.830;12.082;2023-12-14T13:51:54;1.20;;;1.15;;
11171;SDS011;5642;50.830;12.082;2023-12-14T13:54:34;1.08;;;1.00;;
11171;SDS011;5642;50.830;12.082;2023-12-14T13:57:05;1.52;;;1.42;;
11171;SDS011;5642;50.830;12.082;2023-12-14T13:59:41;1.20;;;1.10;;
11171;SDS011;5642;50.830;12.082;2023-12-14T14:02:08;1.40;;;1.30;;
11171;SDS011;5642;50.830;12.082;2023-12-14T14:04:40;1.30;;;1.20;;
11171;SDS011;5642;50.830;12.082;2023-12-14T14:07:19;1.23;;;1.00;;
11171;SDS011;5642;50.830;12.082;2023-12-14T14:09:49;1.02;;;1.02;;
11171;SDS011;5642;50.830;12.082;2023-12-14T14:12:39;1.10;;;1.10;;
11171;SDS011;5642;50.830;12.082;2023-12-14T14:15:27;1.10;;;1.10;;
11171;SDS011;5642;50.830;12.082;2023-12-14T14:18:09;1.30;;;1.20;;
11171;SDS011;5642;50.830;12.082;2023-12-14T14:20:54;1.02;;;1.02;;
11171;SDS011;5642;50.830;12.082;2023-12-14T14:23:29;1.08;;;1.08;;
11171;SDS011;5642;50.830;12.082;2023-12-14T14:26:05;0.93;;;0.93;;
11171;SDS011;5642;50.830;12.082;2023-12-14T14:28:42;1.10;;;1.10;;
11171;SDS011;5642;50.830;12.082;2023-12-14T14:31:24;1.00;;;1.00;;
11171;SDS011;5642;50.830;12.082;2023-12-14T14:34:02;1.00;;;1.00;;
11171;SDS011;5642;50.830;12.082;2023-12-14T14:36:46;1.00;;;1.00;;
11171;SDS011;5642;50.830;12.082;2023-12-14T14:39:37;0.88;;;0.88;;
11171;SDS011;5642;50.830;12.082;2023-12-14T14:42:18;0.90;;;0.90;;
11171;SDS011;5642;50.830;12.082;2023-12-14T14:44:54;5.47;;;4.13;;
11171;SDS011;5642;50.830;12.082;2023-12-14T14:47:30;2.53;;;2.25;;
11171;SDS011;5642;50.830;12.082;2023-12-14T14:50:19;1.92;;;1.73;;
11171;SDS011;5642;50.830;12.082;2023-12-14T14:53:04;1.70;;;1.60;;
11171;SDS011;5642;50.830;12.082;2023-12-14T14:55:55;1.50;;;1.40;;
11171;SDS011;5642;50.830;12.082;2023-12-14T14:58:40;2.10;;;1.90;;
11171;SDS011;5642;50.830;12.082;2023-12-14T15:01:23;1.90;;;1.80;;
11171;SDS011;5642;50.830;12.082;2023-12-14T15:04:07;1.50;;;1.40;;
11171;SDS011;5642;50.830;12.082;2023-12-14T15:06:46;1.40;;;1.30;;
11171;SDS011;5642;50.830;12.082;2023-12-14T15:09:27;1.10;;;1.10;;
11171;SDS011;5642;50.830;12.082;2023-12-14T15:11:59;1.45;;;1.35;;
11171;SDS011;5642;50.830;12.082;2023-12-14T15:14:44;1.30;;;1.20;;
11171;SDS011;5642;50.830;12.082;2023-12-14T15:17:26;1.10;;;1.10;;
11171;SDS011;5642;50.830;12.082;2023-12-14T15:20:08;1.02;;;1.02;;
11171;SDS011;5642;50.830;12.082;2023-12-14T15:22:44;1.10;;;1.10;;
11171;SDS011;5642;50.830;12.082;2023-12-14T15:25:21;1.17;;;1.10;;
11171;SDS011;5642;50.830;12.082;2023-12-14T15:27:55;1.20;;;1.20;;
11171;SDS011;5642;50.830;12.082;2023-12-14T15:30:21;1.13;;;1.10;;
11171;SDS011;5642;50.830;12.082;2023-12-14T15:33:07;1.33;;;1.23;;
11171;SDS011;5642;50.830;12.082;2023-12-14T15:35:52;1.15;;;1.05;;
11171;SDS011;5642;50.830;12.082;2023-12-14T15:38:19;1.15;;;1.10;;
11171;SDS011;5642;50.830;12.082;2023-12-14T15:41:01;1.50;;;1.40;;
11171;SDS011;5642;50.830;12.082;2023-12-14T15:43:34;1.25;;;1.15;;
11171;SDS011;5642;50.830;12.082;2023-12-14T15:46:24;1.50;;;1.40;;
11171;SDS011;5642;50.830;12.082;2023-12-14T15:49:03;1.58;;;1.48;;
11171;SDS011;5642;50.830;12.082;2023-12-14T15:51:45;1.63;;;1.52;;